Terminal Aerodrome Forecast
Issued by NWS

Home | Current Version | Previous Version | Text Only | Print | Product List | Glossary On
Versions: 1 2 3 4 5 6 7 8 9 10 11 12 13 14 15
000
FTUS43 KIND 261100
TAFHUF
TAF
KHUF 261131Z 2612/2712 16008KT P6SM OVC012
     FM261500 19012G23KT P6SM -SHRA BKN025
     FM261900 20014G26KT P6SM VCTS BKN035CB
     FM270200 20010KT P6SM BKN025
     FM270700 20008KT 2SM BR BKN020=

USA.gov is the U.S. government's official web portal to all federal, state and local government web resources and services.